sensor_id;sensor_type;location;lat;lon;timestamp;P1;durP1;ratioP1;P2;durP2;ratioP2
211;SDS011;16228;48.800;9.002;2023-07-29T00:00:01;3.57;;;3.27;;
211;SDS011;16228;48.800;9.002;2023-07-29T00:02:28;6.83;;;3.97;;
211;SDS011;16228;48.800;9.002;2023-07-29T00:04:57;4.17;;;2.97;;
211;SDS011;16228;48.800;9.002;2023-07-29T00:07:24;4.63;;;4.00;;
211;SDS011;16228;48.800;9.002;2023-07-29T00:09:53;3.70;;;3.47;;
211;SDS011;16228;48.800;9.002;2023-07-29T00:12:20;5.33;;;3.33;;
211;SDS011;16228;48.800;9.002;2023-07-29T00:14:47;9.93;;;4.07;;
211;SDS011;16228;48.800;9.002;2023-07-29T00:17:14;3.37;;;3.17;;
211;SDS011;16228;48.800;9.002;2023-07-29T00:19:41;5.60;;;3.83;;
211;SDS011;16228;48.800;9.002;2023-07-29T00:22:09;3.23;;;2.97;;
211;SDS011;16228;48.800;9.002;2023-07-29T00:24:36;4.07;;;3.47;;
211;SDS011;16228;48.800;9.002;2023-07-29T00:27:05;8.83;;;4.47;;
211;SDS011;16228;48.800;9.002;2023-07-29T00:29:32;3.60;;;3.30;;
211;SDS011;16228;48.800;9.002;2023-07-29T00:31:59;4.80;;;4.40;;
211;SDS011;16228;48.800;9.002;2023-07-29T00:34:26;3.97;;;3.40;;
211;SDS011;16228;48.800;9.002;2023-07-29T00:36:53;3.10;;;2.80;;
211;SDS011;16228;48.800;9.002;2023-07-29T00:39:21;5.37;;;3.87;;
211;SDS011;16228;48.800;9.002;2023-07-29T00:41:49;4.70;;;3.10;;
211;SDS011;16228;48.800;9.002;2023-07-29T00:44:18;3.50;;;3.13;;
211;SDS011;16228;48.800;9.002;2023-07-29T00:46:45;3.13;;;2.90;;
211;SDS011;16228;48.800;9.002;2023-07-29T00:49:13;5.33;;;4.83;;
211;SDS011;16228;48.800;9.002;2023-07-29T00:51:40;3.43;;;3.13;;
211;SDS011;16228;48.800;9.002;2023-07-29T00:54:08;3.70;;;3.40;;
211;SDS011;16228;48.800;9.002;2023-07-29T00:56:35;4.30;;;4.00;;
211;SDS011;16228;48.800;9.002;2023-07-29T00:59:03;6.27;;;3.60;;
211;SDS011;16228;48.800;9.002;2023-07-29T01:01:32;3.63;;;3.33;;
211;SDS011;16228;48.800;9.002;2023-07-29T01:03:59;3.27;;;2.90;;
211;SDS011;16228;48.800;9.002;2023-07-29T01:06:27;6.03;;;2.83;;
211;SDS011;16228;48.800;9.002;2023-07-29T01:09:06;3.73;;;3.23;;
211;SDS011;16228;48.800;9.002;2023-07-29T01:11:38;5.40;;;2.97;;
211;SDS011;16228;48.800;9.002;2023-07-29T01:14:16;8.43;;;3.40;;
211;SDS011;16228;48.800;9.002;2023-07-29T01:16:51;6.13;;;3.70;;
211;SDS011;16228;48.800;9.002;2023-07-29T01:19:23;4.53;;;3.23;;
211;SDS011;16228;48.800;9.002;2023-07-29T01:22:03;5.83;;;3.50;;
211;SDS011;16228;48.800;9.002;2023-07-29T01:24:33;4.60;;;4.20;;
211;SDS011;16228;48.800;9.002;2023-07-29T01:27:01;5.30;;;3.93;;
211;SDS011;16228;48.800;9.002;2023-07-29T01:29:30;3.23;;;2.77;;
211;SDS011;16228;48.800;9.002;2023-07-29T01:31:58;3.00;;;2.80;;
211;SDS011;16228;48.800;9.002;2023-07-29T01:34:32;4.17;;;3.77;;
211;SDS011;16228;48.800;9.002;2023-07-29T01:37:18;3.50;;;3.07;;
211;SDS011;16228;48.800;9.002;2023-07-29T01:39:50;5.30;;;3.53;;
211;SDS011;16228;48.800;9.002;2023-07-29T01:42:18;4.40;;;4.00;;
211;SDS011;16228;48.800;9.002;2023-07-29T01:44:46;4.00;;;3.70;;
211;SDS011;16228;48.800;9.002;2023-07-29T01:47:13;4.17;;;3.73;;
211;SDS011;16228;48.800;9.002;2023-07-29T01:49:40;5.33;;;3.03;;
211;SDS011;16228;48.800;9.002;2023-07-29T01:52:07;7.40;;;3.70;;
211;SDS011;16228;48.800;9.002;2023-07-29T01:54:34;3.70;;;3.40;;
211;SDS011;16228;48.800;9.002;2023-07-29T01:57:13;3.70;;;3.40;;
211;SDS011;16228;48.800;9.002;2023-07-29T01:59:40;4.70;;;2.97;;
211;SDS011;16228;48.800;9.002;2023-07-29T02:02:07;3.30;;;3.00;;
211;SDS011;16228;48.800;9.002;2023-07-29T02:04:34;2.90;;;2.70;;
211;SDS011;16228;48.800;9.002;2023-07-29T02:07:01;5.40;;;2.77;;
211;SDS011;16228;48.800;9.002;2023-07-29T02:09:28;4.07;;;3.40;;
211;SDS011;16228;48.800;9.002;2023-07-29T02:11:57;4.30;;;2.77;;
211;SDS011;16228;48.800;9.002;2023-07-29T02:14:25;3.23;;;3.00;;
211;SDS011;16228;48.800;9.002;2023-07-29T02:16:52;3.40;;;3.20;;
211;SDS011;16228;48.800;9.002;2023-07-29T02:19:20;6.83;;;3.43;;
211;SDS011;16228;48.800;9.002;2023-07-29T02:21:47;3.50;;;3.20;;
211;SDS011;16228;48.800;9.002;2023-07-29T02:24:14;3.67;;;3.20;;
211;SDS011;16228;48.800;9.002;2023-07-29T02:26:41;3.37;;;2.90;;
211;SDS011;16228;48.800;9.002;2023-07-29T02:29:08;4.00;;;3.70;;
211;SDS011;16228;48.800;9.002;2023-07-29T02:31:37;6.43;;;4.03;;
211;SDS011;16228;48.800;9.002;2023-07-29T02:34:04;4.23;;;3.90;;
211;SDS011;16228;48.800;9.002;2023-07-29T02:36:31;5.03;;;3.60;;
211;SDS011;16228;48.800;9.002;2023-07-29T02:38:58;5.03;;;4.10;;
211;SDS011;16228;48.800;9.002;2023-07-29T02:41:25;7.33;;;3.73;;
211;SDS011;16228;48.800;9.002;2023-07-29T02:43:53;5.87;;;3.50;;
211;SDS011;16228;48.800;9.002;2023-07-29T02:46:20;5.90;;;3.90;;
211;SDS011;16228;48.800;9.002;2023-07-29T02:48:49;4.30;;;3.33;;
211;SDS011;16228;48.800;9.002;2023-07-29T02:51:16;5.87;;;4.63;;
211;SDS011;16228;48.800;9.002;2023-07-29T02:53:44;4.03;;;3.67;;
211;SDS011;16228;48.800;9.002;2023-07-29T02:56:11;4.67;;;3.73;;
211;SDS011;16228;48.800;9.002;2023-07-29T02:58:38;4.97;;;3.60;;
211;SDS011;16228;48.800;9.002;2023-07-29T03:01:07;4.00;;;3.60;;
211;SDS011;16228;48.800;9.002;2023-07-29T03:03:34;4.80;;;3.73;;
211;SDS011;16228;48.800;9.002;2023-07-29T03:06:03;3.50;;;3.30;;
211;SDS011;16228;48.800;9.002;2023-07-29T03:08:31;3.60;;;3.30;;
211;SDS011;16228;48.800;9.002;2023-07-29T03:11:04;5.60;;;4.37;;
211;SDS011;16228;48.800;9.002;2023-07-29T03:13:32;5.93;;;4.37;;
211;SDS011;16228;48.800;9.002;2023-07-29T03:16:04;4.30;;;3.47;;
211;SDS011;16228;48.800;9.002;2023-07-29T03:18:32;4.37;;;3.60;;
211;SDS011;16228;48.800;9.002;2023-07-29T03:20:59;6.90;;;3.40;;
211;SDS011;16228;48.800;9.002;2023-07-29T03:23:29;5.23;;;3.73;;
211;SDS011;16228;48.800;9.002;2023-07-29T03:25:57;5.73;;;3.17;;
211;SDS011;16228;48.800;9.002;2023-07-29T03:28:25;4.10;;;3.80;;
211;SDS011;16228;48.800;9.002;2023-07-29T03:30:53;4.03;;;2.77;;
211;SDS011;16228;48.800;9.002;2023-07-29T03:33:21;3.60;;;3.30;;
211;SDS011;16228;48.800;9.002;2023-07-29T03:35:49;4.53;;;4.07;;
211;SDS011;16228;48.800;9.002;2023-07-29T03:38:16;3.20;;;2.87;;
211;SDS011;16228;48.800;9.002;2023-07-29T03:40:45;8.83;;;4.60;;
211;SDS011;16228;48.800;9.002;2023-07-29T03:43:12;5.40;;;4.30;;
211;SDS011;16228;48.800;9.002;2023-07-29T03:45:39;10.33;;;3.60;;
211;SDS011;16228;48.800;9.002;2023-07-29T03:48:06;4.17;;;3.60;;
211;SDS011;16228;48.800;9.002;2023-07-29T03:50:34;4.17;;;3.77;;
211;SDS011;16228;48.800;9.002;2023-07-29T03:53:02;3.80;;;3.50;;
211;SDS011;16228;48.800;9.002;2023-07-29T03:55:29;4.10;;;3.60;;
211;SDS011;16228;48.800;9.002;2023-07-29T03:57:58;3.30;;;3.00;;
211;SDS011;16228;48.800;9.002;2023-07-29T04:00:26;2.97;;;2.77;;
211;SDS011;16228;48.800;9.002;2023-07-29T04:02:54;4.87;;;3.63;;
211;SDS011;16228;48.800;9.002;2023-07-29T04:05:21;4.33;;;3.10;;
211;SDS011;16228;48.800;9.002;2023-07-29T04:07:48;4.17;;;2.90;;
211;SDS011;16228;48.800;9.002;2023-07-29T04:10:15;3.50;;;3.20;;
211;SDS011;16228;48.800;9.002;2023-07-29T04:12:43;7.33;;;3.63;;
211;SDS011;16228;48.800;9.002;2023-07-29T04:15:11;3.27;;;3.00;;
211;SDS011;16228;48.800;9.002;2023-07-29T04:17:38;5.30;;;2.77;;
211;SDS011;16228;48.800;9.002;2023-07-29T04:20:06;5.63;;;4.77;;
211;SDS011;16228;48.800;9.002;2023-07-29T04:22:34;5.10;;;3.93;;
211;SDS011;16228;48.800;9.002;2023-07-29T04:25:01;9.00;;;5.07;;
211;SDS011;16228;48.800;9.002;2023-07-29T04:27:29;6.07;;;3.87;;
211;SDS011;16228;48.800;9.002;2023-07-29T04:29:57;5.57;;;3.83;;
211;SDS011;16228;48.800;9.002;2023-07-29T04:32:25;5.83;;;5.17;;
211;SDS011;16228;48.800;9.002;2023-07-29T04:34:52;5.87;;;4.00;;
211;SDS011;16228;48.800;9.002;2023-07-29T04:37:19;3.23;;;2.93;;
211;SDS011;16228;48.800;9.002;2023-07-29T04:39:46;8.87;;;4.37;;
211;SDS011;16228;48.800;9.002;2023-07-29T04:42:14;7.03;;;5.27;;
211;SDS011;16228;48.800;9.002;2023-07-29T04:44:41;8.13;;;5.13;;
211;SDS011;16228;48.800;9.002;2023-07-29T04:47:09;7.10;;;3.83;;
211;SDS011;16228;48.800;9.002;2023-07-29T04:49:38;4.73;;;4.30;;
211;SDS011;16228;48.800;9.002;2023-07-29T04:52:05;6.77;;;4.90;;
211;SDS011;16228;48.800;9.002;2023-07-29T04:54:33;5.87;;;4.63;;
211;SDS011;16228;48.800;9.002;2023-07-29T04:57:00;6.47;;;4.63;;
211;SDS011;16228;48.800;9.002;2023-07-29T04:59:27;6.73;;;3.80;;
211;SDS011;16228;48.800;9.002;2023-07-29T05:01:54;6.27;;;3.30;;
211;SDS011;16228;48.800;9.002;2023-07-29T05:04:21;4.50;;;3.83;;
211;SDS011;16228;48.800;9.002;2023-07-29T05:06:50;4.03;;;3.63;;
211;SDS011;16228;48.800;9.002;2023-07-29T05:09:18;6.27;;;4.40;;
211;SDS011;16228;48.800;9.002;2023-07-29T05:11:46;4.07;;;3.67;;
211;SDS011;16228;48.800;9.002;2023-07-29T05:14:14;4.93;;;4.40;;
211;SDS011;16228;48.800;9.002;2023-07-29T05:16:42;4.83;;;3.70;;
211;SDS011;16228;48.800;9.002;2023-07-29T05:19:10;5.70;;;4.63;;
211;SDS011;16228;48.800;9.002;2023-07-29T05:21:37;6.87;;;4.40;;
211;SDS011;16228;48.800;9.002;2023-07-29T05:24:06;6.23;;;5.03;;
211;SDS011;16228;48.800;9.002;2023-07-29T05:26:33;4.17;;;3.63;;
211;SDS011;16228;48.800;9.002;2023-07-29T05:29:00;4.03;;;3.63;;
211;SDS011;16228;48.800;9.002;2023-07-29T05:31:29;4.33;;;3.90;;
211;SDS011;16228;48.800;9.002;2023-07-29T05:33:56;9.20;;;3.93;;
211;SDS011;16228;48.800;9.002;2023-07-29T05:36:24;4.60;;;3.70;;
211;SDS011;16228;48.800;9.002;2023-07-29T05:38:51;4.47;;;3.37;;
211;SDS011;16228;48.800;9.002;2023-07-29T05:41:20;4.17;;;3.80;;
211;SDS011;16228;48.800;9.002;2023-07-29T05:43:47;4.27;;;3.23;;
211;SDS011;16228;48.800;9.002;2023-07-29T05:46:15;3.73;;;3.40;;
211;SDS011;16228;48.800;9.002;2023-07-29T05:48:42;3.70;;;3.23;;
211;SDS011;16228;48.800;9.002;2023-07-29T05:51:09;4.20;;;3.90;;
211;SDS011;16228;48.800;9.002;2023-07-29T05:53:36;3.70;;;3.50;;
211;SDS011;16228;48.800;9.002;2023-07-29T05:56:03;4.87;;;3.30;;
211;SDS011;16228;48.800;9.002;2023-07-29T05:58:32;3.40;;;2.90;;
211;SDS011;16228;48.800;9.002;2023-07-29T06:00:59;4.23;;;2.30;;
211;SDS011;16228;48.800;9.002;2023-07-29T06:03:26;2.40;;;2.20;;
211;SDS011;16228;48.800;9.002;2023-07-29T06:05:54;2.43;;;2.00;;
211;SDS011;16228;48.800;9.002;2023-07-29T06:08:21;3.13;;;1.80;;
211;SDS011;16228;48.800;9.002;2023-07-29T06:10:48;7.60;;;2.83;;
211;SDS011;16228;48.800;9.002;2023-07-29T06:13:15;1.80;;;1.70;;
211;SDS011;16228;48.800;9.002;2023-07-29T06:15:44;2.13;;;1.50;;
211;SDS011;16228;48.800;9.002;2023-07-29T06:18:11;3.10;;;2.13;;
211;SDS011;16228;48.800;9.002;2023-07-29T06:20:38;1.90;;;1.70;;
211;SDS011;16228;48.800;9.002;2023-07-29T06:23:06;2.47;;;1.90;;
211;SDS011;16228;48.800;9.002;2023-07-29T06:25:34;3.27;;;1.90;;
211;SDS011;16228;48.800;9.002;2023-07-29T06:28:01;2.70;;;1.63;;
211;SDS011;16228;48.800;9.002;2023-07-29T06:30:28;2.33;;;1.47;;
211;SDS011;16228;48.800;9.002;2023-07-29T06:32:57;1.67;;;1.40;;
211;SDS011;16228;48.800;9.002;2023-07-29T06:35:24;2.00;;;1.50;;
211;SDS011;16228;48.800;9.002;2023-07-29T06:37:51;4.53;;;2.33;;
211;SDS011;16228;48.800;9.002;2023-07-29T06:40:18;2.77;;;1.73;;
211;SDS011;16228;48.800;9.002;2023-07-29T06:42:46;2.50;;;2.13;;
211;SDS011;16228;48.800;9.002;2023-07-29T06:45:13;1.80;;;1.70;;
211;SDS011;16228;48.800;9.002;2023-07-29T06:47:40;2.50;;;1.83;;
211;SDS011;16228;48.800;9.002;2023-07-29T06:50:09;2.80;;;1.90;;
211;SDS011;16228;48.800;9.002;2023-07-29T06:52:37;1.73;;;1.63;;
211;SDS011;16228;48.800;9.002;2023-07-29T06:55:05;2.63;;;2.20;;
211;SDS011;16228;48.800;9.002;2023-07-29T06:57:33;2.80;;;1.80;;
211;SDS011;16228;48.800;9.002;2023-07-29T07:00:01;2.03;;;1.90;;
211;SDS011;16228;48.800;9.002;2023-07-29T07:02:28;1.97;;;1.77;;
211;SDS011;16228;48.800;9.002;2023-07-29T07:04:55;2.20;;;2.00;;
211;SDS011;16228;48.800;9.002;2023-07-29T07:07:24;3.83;;;2.00;;
211;SDS011;16228;48.800;9.002;2023-07-29T07:09:51;2.20;;;2.00;;
211;SDS011;16228;48.800;9.002;2023-07-29T07:12:18;2.17;;;1.80;;
211;SDS011;16228;48.800;9.002;2023-07-29T07:14:45;2.00;;;1.83;;
211;SDS011;16228;48.800;9.002;2023-07-29T07:17:12;2.73;;;1.80;;
211;SDS011;16228;48.800;9.002;2023-07-29T07:19:40;2.07;;;1.67;;
211;SDS011;16228;48.800;9.002;2023-07-29T07:22:07;2.60;;;1.70;;
211;SDS011;16228;48.800;9.002;2023-07-29T07:24:35;2.73;;;1.80;;
211;SDS011;16228;48.800;9.002;2023-07-29T07:27:03;1.57;;;1.47;;
211;SDS011;16228;48.800;9.002;2023-07-29T07:29:30;2.43;;;1.57;;
211;SDS011;16228;48.800;9.002;2023-07-29T07:31:58;2.80;;;1.50;;
211;SDS011;16228;48.800;9.002;2023-07-29T07:34:25;1.97;;;1.43;;
211;SDS011;16228;48.800;9.002;2023-07-29T07:36:52;5.83;;;3.57;;
211;SDS011;16228;48.800;9.002;2023-07-29T07:39:19;1.80;;;1.50;;
211;SDS011;16228;48.800;9.002;2023-07-29T07:41:48;1.20;;;1.10;;
211;SDS011;16228;48.800;9.002;2023-07-29T07:44:15;1.77;;;1.50;;
211;SDS011;16228;48.800;9.002;2023-07-29T07:46:44;2.00;;;1.20;;
211;SDS011;16228;48.800;9.002;2023-07-29T07:49:11;1.83;;;1.60;;
211;SDS011;16228;48.800;9.002;2023-07-29T07:51:39;2.30;;;1.43;;
211;SDS011;16228;48.800;9.002;2023-07-29T07:54:06;1.30;;;1.20;;
211;SDS011;16228;48.800;9.002;2023-07-29T07:56:33;1.40;;;1.17;;
211;SDS011;16228;48.800;9.002;2023-07-29T07:59:02;1.07;;;1.07;;
211;SDS011;16228;48.800;9.002;2023-07-29T08:01:33;1.13;;;1.03;;
211;SDS011;16228;48.800;9.002;2023-07-29T08:04:01;1.40;;;1.07;;
211;SDS011;16228;48.800;9.002;2023-07-29T08:06:28;0.93;;;0.87;;
211;SDS011;16228;48.800;9.002;2023-07-29T08:08:56;1.30;;;1.20;;
211;SDS011;16228;48.800;9.002;2023-07-29T08:11:23;2.33;;;1.00;;
211;SDS011;16228;48.800;9.002;2023-07-29T08:13:50;1.17;;;1.00;;
211;SDS011;16228;48.800;9.002;2023-07-29T08:16:19;1.20;;;1.10;;
211;SDS011;16228;48.800;9.002;2023-07-29T08:18:46;1.30;;;0.93;;
211;SDS011;16228;48.800;9.002;2023-07-29T08:21:13;2.70;;;1.30;;
211;SDS011;16228;48.800;9.002;2023-07-29T08:23:40;1.87;;;1.30;;
211;SDS011;16228;48.800;9.002;2023-07-29T08:26:08;1.00;;;1.00;;
211;SDS011;16228;48.800;9.002;2023-07-29T08:28:35;1.30;;;1.20;;
211;SDS011;16228;48.800;9.002;2023-07-29T08:31:04;0.87;;;0.87;;
211;SDS011;16228;48.800;9.002;2023-07-29T08:33:33;1.03;;;1.00;;
211;SDS011;16228;48.800;9.002;2023-07-29T08:36:01;2.93;;;1.00;;
211;SDS011;16228;48.800;9.002;2023-07-29T08:38:28;1.57;;;0.97;;
211;SDS011;16228;48.800;9.002;2023-07-29T08:40:57;1.17;;;1.07;;
211;SDS011;16228;48.800;9.002;2023-07-29T08:43:28;2.67;;;1.00;;
211;SDS011;16228;48.800;9.002;2023-07-29T08:45:57;1.77;;;1.07;;
211;SDS011;16228;48.800;9.002;2023-07-29T08:48:28;1.23;;;1.00;;
211;SDS011;16228;48.800;9.002;2023-07-29T08:51:00;1.00;;;1.00;;
211;SDS011;16228;48.800;9.002;2023-07-29T08:53:29;0.82;;;0.82;;
211;SDS011;16228;48.800;9.002;2023-07-29T08:55:58;1.10;;;1.10;;
211;SDS011;16228;48.800;9.002;2023-07-29T08:58:25;2.13;;;1.10;;
211;SDS011;16228;48.800;9.002;2023-07-29T09:00:53;1.00;;;1.00;;
211;SDS011;16228;48.800;9.002;2023-07-29T09:03:21;2.10;;;1.07;;
211;SDS011;16228;48.800;9.002;2023-07-29T09:05:48;1.50;;;0.90;;
211;SDS011;16228;48.800;9.002;2023-07-29T09:08:18;1.03;;;1.03;;
211;SDS011;16228;48.800;9.002;2023-07-29T09:10:46;4.77;;;1.00;;
211;SDS011;16228;48.800;9.002;2023-07-29T09:13:13;1.87;;;1.20;;
211;SDS011;16228;48.800;9.002;2023-07-29T09:15:41;1.45;;;0.90;;
211;SDS011;16228;48.800;9.002;2023-07-29T09:18:09;0.90;;;0.90;;
211;SDS011;16228;48.800;9.002;2023-07-29T09:20:37;1.02;;;0.93;;
211;SDS011;16228;48.800;9.002;2023-07-29T09:23:06;3.35;;;1.30;;
211;SDS011;16228;48.800;9.002;2023-07-29T09:25:36;2.50;;;1.30;;
211;SDS011;16228;48.800;9.002;2023-07-29T09:28:07;1.17;;;1.17;;
211;SDS011;16228;48.800;9.002;2023-07-29T09:30:36;1.48;;;1.30;;
211;SDS011;16228;48.800;9.002;2023-07-29T09:33:03;2.55;;;1.60;;
211;SDS011;16228;48.800;9.002;2023-07-29T09:35:32;1.17;;;1.10;;
211;SDS011;16228;48.800;9.002;2023-07-29T09:38:01;1.83;;;1.30;;
211;SDS011;16228;48.800;9.002;2023-07-29T09:40:33;2.10;;;1.30;;
211;SDS011;16228;48.800;9.002;2023-07-29T09:43:04;2.00;;;1.90;;
211;SDS011;16228;48.800;9.002;2023-07-29T09:45:33;1.93;;;1.83;;
211;SDS011;16228;48.800;9.002;2023-07-29T09:48:01;2.57;;;1.30;;
211;SDS011;16228;48.800;9.002;2023-07-29T09:50:30;1.70;;;1.30;;
211;SDS011;16228;48.800;9.002;2023-07-29T09:52:57;1.67;;;1.57;;
211;SDS011;16228;48.800;9.002;2023-07-29T09:55:25;1.70;;;1.60;;
211;SDS011;16228;48.800;9.002;2023-07-29T09:57:53;3.73;;;1.53;;
211;SDS011;16228;48.800;9.002;2023-07-29T10:00:23;2.00;;;1.90;;
211;SDS011;16228;48.800;9.002;2023-07-29T10:02:51;2.37;;;1.30;;
211;SDS011;16228;48.800;9.002;2023-07-29T10:05:19;2.80;;;1.57;;
211;SDS011;16228;48.800;9.002;2023-07-29T10:07:48;2.40;;;2.20;;
211;SDS011;16228;48.800;9.002;2023-07-29T10:10:15;1.60;;;1.50;;
211;SDS011;16228;48.800;9.002;2023-07-29T10:12:43;2.70;;;2.60;;
211;SDS011;16228;48.800;9.002;2023-07-29T10:15:11;1.73;;;1.63;;
211;SDS011;16228;48.800;9.002;2023-07-29T10:17:40;1.50;;;1.40;;
211;SDS011;16228;48.800;9.002;2023-07-29T10:20:08;2.40;;;1.30;;
211;SDS011;16228;48.800;9.002;2023-07-29T10:22:37;1.43;;;1.40;;
211;SDS011;16228;48.800;9.002;2023-07-29T10:25:08;1.20;;;1.20;;
211;SDS011;16228;48.800;9.002;2023-07-29T10:27:39;1.40;;;1.30;;
211;SDS011;16228;48.800;9.002;2023-07-29T10:30:13;1.70;;;1.53;;
211;SDS011;16228;48.800;9.002;2023-07-29T10:32:43;1.10;;;1.10;;
211;SDS011;16228;48.800;9.002;2023-07-29T10:35:12;1.73;;;1.20;;
211;SDS011;16228;48.800;9.002;2023-07-29T10:37:40;1.23;;;1.13;;
211;SDS011;16228;48.800;9.002;2023-07-29T10:40:08;1.23;;;0.80;;
211;SDS011;16228;48.800;9.002;2023-07-29T10:42:37;1.50;;;1.40;;
211;SDS011;16228;48.800;9.002;2023-07-29T10:45:17;1.43;;;1.33;;
211;SDS011;16228;48.800;9.002;2023-07-29T10:47:47;1.50;;;1.03;;
211;SDS011;16228;48.800;9.002;2023-07-29T10:50:17;1.70;;;1.23;;
211;SDS011;16228;48.800;9.002;2023-07-29T10:52:48;2.10;;;1.30;;
211;SDS011;16228;48.800;9.002;2023-07-29T10:55:23;1.23;;;1.20;;
211;SDS011;16228;48.800;9.002;2023-07-29T10:57:52;2.03;;;1.40;;
211;SDS011;16228;48.800;9.002;2023-07-29T11:00:35;1.80;;;1.15;;
211;SDS011;16228;48.800;9.002;2023-07-29T11:03:05;2.60;;;2.45;;
211;SDS011;16228;48.800;9.002;2023-07-29T11:05:46;1.30;;;1.20;;
211;SDS011;16228;48.800;9.002;2023-07-29T11:08:22;1.50;;;1.40;;
211;SDS011;16228;48.800;9.002;2023-07-29T11:11:00;1.95;;;1.10;;
211;SDS011;16228;48.800;9.002;2023-07-29T11:13:30;1.25;;;1.25;;
211;SDS011;16228;48.800;9.002;2023-07-29T11:15:58;1.40;;;1.30;;
211;SDS011;16228;48.800;9.002;2023-07-29T11:18:28;1.93;;;1.40;;
211;SDS011;16228;48.800;9.002;2023-07-29T11:20:57;1.50;;;1.40;;
211;SDS011;16228;48.800;9.002;2023-07-29T11:25:56;1.93;;;1.33;;
211;SDS011;16228;48.800;9.002;2023-07-29T11:28:23;1.50;;;1.30;;
211;SDS011;16228;48.800;9.002;2023-07-29T11:30:51;1.67;;;1.20;;
211;SDS011;16228;48.800;9.002;2023-07-29T11:33:20;1.80;;;1.47;;
211;SDS011;16228;48.800;9.002;2023-07-29T11:35:50;1.40;;;1.30;;
211;SDS011;16228;48.800;9.002;2023-07-29T11:38:18;1.90;;;1.80;;
211;SDS011;16228;48.800;9.002;2023-07-29T11:40:56;2.07;;;1.97;;
211;SDS011;16228;48.800;9.002;2023-07-29T11:43:25;1.70;;;1.60;;
211;SDS011;16228;48.800;9.002;2023-07-29T11:45:53;1.70;;;1.60;;
211;SDS011;16228;48.800;9.002;2023-07-29T11:48:27;1.10;;;1.10;;
211;SDS011;16228;48.800;9.002;2023-07-29T11:50:57;1.70;;;1.60;;
211;SDS011;16228;48.800;9.002;2023-07-29T11:53:26;1.85;;;1.70;;
211;SDS011;16228;48.800;9.002;2023-07-29T11:55:55;2.92;;;1.38;;
211;SDS011;16228;48.800;9.002;2023-07-29T11:58:24;2.38;;;1.50;;
211;SDS011;16228;48.800;9.002;2023-07-29T12:00:52;1.48;;;1.38;;
211;SDS011;16228;48.800;9.002;2023-07-29T12:03:20;1.52;;;1.42;;
211;SDS011;16228;48.800;9.002;2023-07-29T12:05:47;1.85;;;1.30;;
211;SDS011;16228;48.800;9.002;2023-07-29T12:08:17;1.88;;;1.38;;
211;SDS011;16228;48.800;9.002;2023-07-29T12:10:45;2.30;;;1.80;;
211;SDS011;16228;48.800;9.002;2023-07-29T12:13:13;2.05;;;1.95;;
211;SDS011;16228;48.800;9.002;2023-07-29T12:15:41;1.60;;;1.50;;
211;SDS011;16228;48.800;9.002;2023-07-29T12:18:09;2.17;;;2.05;;
211;SDS011;16228;48.800;9.002;2023-07-29T12:20:38;1.80;;;1.70;;
211;SDS011;16228;48.800;9.002;2023-07-29T12:23:06;3.05;;;2.17;;
211;SDS011;16228;48.800;9.002;2023-07-29T12:25:35;19.35;;;7.95;;
211;SDS011;16228;48.800;9.002;2023-07-29T12:28:03;25.42;;;9.10;;
211;SDS011;16228;48.800;9.002;2023-07-29T12:30:32;11.50;;;4.50;;
211;SDS011;16228;48.800;9.002;2023-07-29T12:32:59;7.05;;;3.92;;
211;SDS011;16228;48.800;9.002;2023-07-29T12:35:36;5.30;;;2.42;;
211;SDS011;16228;48.800;9.002;2023-07-29T12:38:03;1.60;;;1.50;;
211;SDS011;16228;48.800;9.002;2023-07-29T12:40:31;1.50;;;1.40;;
211;SDS011;16228;48.800;9.002;2023-07-29T12:43:04;2.58;;;1.73;;
211;SDS011;16228;48.800;9.002;2023-07-29T12:45:35;1.60;;;1.50;;
211;SDS011;16228;48.800;9.002;2023-07-29T12:48:05;1.88;;;1.77;;
211;SDS011;16228;48.800;9.002;2023-07-29T12:50:32;1.67;;;1.42;;
211;SDS011;16228;48.800;9.002;2023-07-29T12:53:00;1.85;;;1.75;;
211;SDS011;16228;48.800;9.002;2023-07-29T12:55:27;1.70;;;1.60;;
211;SDS011;16228;48.800;9.002;2023-07-29T12:57:54;1.33;;;1.25;;
211;SDS011;16228;48.800;9.002;2023-07-29T13:00:28;3.72;;;1.60;;
211;SDS011;16228;48.800;9.002;2023-07-29T13:02:55;1.90;;;1.67;;
211;SDS011;16228;48.800;9.002;2023-07-29T13:05:23;1.73;;;1.63;;
211;SDS011;16228;48.800;9.002;2023-07-29T13:07:50;2.53;;;1.83;;
211;SDS011;16228;48.800;9.002;2023-07-29T13:10:18;1.50;;;1.40;;
211;SDS011;16228;48.800;9.002;2023-07-29T13:12:45;1.60;;;1.50;;
211;SDS011;16228;48.800;9.002;2023-07-29T13:15:12;1.77;;;1.65;;
211;SDS011;16228;48.800;9.002;2023-07-29T13:17:41;1.77;;;1.67;;
211;SDS011;16228;48.800;9.002;2023-07-29T13:20:08;1.63;;;1.52;;
211;SDS011;16228;48.800;9.002;2023-07-29T13:22:36;2.13;;;1.92;;
211;SDS011;16228;48.800;9.002;2023-07-29T13:25:03;2.15;;;1.55;;
211;SDS011;16228;48.800;9.002;2023-07-29T13:27:30;1.52;;;1.42;;
211;SDS011;16228;48.800;9.002;2023-07-29T13:29:58;2.10;;;1.80;;
211;SDS011;16228;48.800;9.002;2023-07-29T13:32:25;1.60;;;1.50;;
211;SDS011;16228;48.800;9.002;2023-07-29T13:34:53;1.50;;;1.40;;
211;SDS011;16228;48.800;9.002;2023-07-29T13:37:20;1.70;;;1.60;;
211;SDS011;16228;48.800;9.002;2023-07-29T13:39:48;3.73;;;1.67;;
211;SDS011;16228;48.800;9.002;2023-07-29T13:42:15;2.93;;;1.97;;
211;SDS011;16228;48.800;9.002;2023-07-29T13:44:42;1.67;;;1.57;;
211;SDS011;16228;48.800;9.002;2023-07-29T13:47:09;2.70;;;1.83;;
211;SDS011;16228;48.800;9.002;2023-07-29T13:49:36;1.83;;;1.73;;
211;SDS011;16228;48.800;9.002;2023-07-29T13:52:05;1.47;;;1.40;;
211;SDS011;16228;48.800;9.002;2023-07-29T13:54:33;1.87;;;1.77;;
211;SDS011;16228;48.800;9.002;2023-07-29T13:57:00;2.60;;;1.83;;
211;SDS011;16228;48.800;9.002;2023-07-29T13:59:27;1.80;;;1.70;;
211;SDS011;16228;48.800;9.002;2023-07-29T14:01:54;1.60;;;1.50;;
211;SDS011;16228;48.800;9.002;2023-07-29T14:04:21;2.90;;;2.00;;
211;SDS011;16228;48.800;9.002;2023-07-29T14:06:49;2.13;;;1.80;;
211;SDS011;16228;48.800;9.002;2023-07-29T14:09:17;1.83;;;1.70;;
211;SDS011;16228;48.800;9.002;2023-07-29T14:11:44;1.73;;;1.63;;
211;SDS011;16228;48.800;9.002;2023-07-29T14:14:11;2.37;;;1.90;;
211;SDS011;16228;48.800;9.002;2023-07-29T14:16:38;1.47;;;1.37;;
211;SDS011;16228;48.800;9.002;2023-07-29T14:19:06;2.30;;;1.70;;
211;SDS011;16228;48.800;9.002;2023-07-29T14:21:33;2.40;;;1.60;;
211;SDS011;16228;48.800;9.002;2023-07-29T14:24:00;1.70;;;1.60;;
211;SDS011;16228;48.800;9.002;2023-07-29T14:26:29;1.57;;;1.47;;
211;SDS011;16228;48.800;9.002;2023-07-29T14:28:56;4.17;;;2.03;;
211;SDS011;16228;48.800;9.002;2023-07-29T14:31:23;3.33;;;1.90;;
211;SDS011;16228;48.800;9.002;2023-07-29T14:33:51;1.80;;;1.70;;
211;SDS011;16228;48.800;9.002;2023-07-29T14:36:18;2.13;;;1.93;;
211;SDS011;16228;48.800;9.002;2023-07-29T14:38:45;2.07;;;1.53;;
211;SDS011;16228;48.800;9.002;2023-07-29T14:41:12;2.00;;;1.90;;
211;SDS011;16228;48.800;9.002;2023-07-29T14:43:41;1.60;;;1.50;;
211;SDS011;16228;48.800;9.002;2023-07-29T14:46:08;2.17;;;1.97;;
211;SDS011;16228;48.800;9.002;2023-07-29T14:48:36;2.73;;;2.20;;
211;SDS011;16228;48.800;9.002;2023-07-29T14:51:03;2.03;;;1.93;;
211;SDS011;16228;48.800;9.002;2023-07-29T14:53:30;1.87;;;1.77;;
211;SDS011;16228;48.800;9.002;2023-07-29T14:55:57;4.03;;;1.80;;
211;SDS011;16228;48.800;9.002;2023-07-29T14:58:24;3.40;;;3.10;;
211;SDS011;16228;48.800;9.002;2023-07-29T15:00:53;1.57;;;1.47;;
211;SDS011;16228;48.800;9.002;2023-07-29T15:03:20;2.50;;;2.30;;
211;SDS011;16228;48.800;9.002;2023-07-29T15:05:47;2.13;;;2.03;;
211;SDS011;16228;48.800;9.002;2023-07-29T15:08:15;1.90;;;1.80;;
211;SDS011;16228;48.800;9.002;2023-07-29T15:10:44;1.77;;;1.67;;
211;SDS011;16228;48.800;9.002;2023-07-29T15:13:12;1.90;;;1.80;;
211;SDS011;16228;48.800;9.002;2023-07-29T15:15:40;1.67;;;1.57;;
211;SDS011;16228;48.800;9.002;2023-07-29T15:18:08;2.20;;;2.10;;
211;SDS011;16228;48.800;9.002;2023-07-29T15:20:36;2.20;;;2.00;;
211;SDS011;16228;48.800;9.002;2023-07-29T15:23:03;2.67;;;2.47;;